createdAt,value
2018-05-28T00:00:25.842Z,102053.95
2018-05-28T00:02:53.375Z,102070.22
2018-05-28T00:05:20.903Z,102016.37
2018-05-28T00:07:48.452Z,101961.52
2018-05-28T00:10:16.030Z,101987.92
2018-05-28T00:12:43.553Z,101938.15
2018-05-28T00:15:11.073Z,101937.13
2018-05-28T00:17:38.758Z,102021.45
2018-05-28T00:20:06.281Z,102020.44
2018-05-28T00:22:33.809Z,102018.41
2018-05-28T00:25:01.349Z,102019.42
2018-05-28T00:27:28.869Z,102008.24
2018-05-28T00:29:56.409Z,101952.37
2018-05-28T00:32:23.934Z,101881.27
2018-05-28T00:34:51.966Z,101913.77
2018-05-28T00:37:19.485Z,101866.02
2018-05-28T00:39:47.018Z,101849.77
2018-05-28T00:42:14.570Z,101863.99
2018-05-28T00:44:42.144Z,101722.80
2018-05-28T00:47:09.717Z,101736.00
2018-05-28T00:49:37.276Z,101687.23
2018-05-28T00:52:04.798Z,101710.60
2018-05-28T00:54:32.351Z,101706.55
2018-05-28T00:57:00.339Z,101764.44
2018-05-28T00:59:27.871Z,101816.25
2018-05-28T01:01:55.394Z,101859.93
2018-05-28T01:04:22.938Z,101712.63
2018-05-28T01:06:50.457Z,101610.05
2018-05-28T01:09:18.005Z,101586.68
2018-05-28T01:11:45.521Z,101619.19
2018-05-28T01:14:13.245Z,101605.98
2018-05-28T01:16:40.777Z,101613.09
2018-05-28T01:19:08.305Z,101620.20
2018-05-28T01:21:36.182Z,101679.11
2018-05-28T01:24:03.716Z,101627.31
2018-05-28T01:26:31.252Z,101663.87
2018-05-28T01:28:58.793Z,101657.78
2018-05-28T01:31:26.462Z,101665.91
2018-05-28T01:33:53.980Z,101751.23
2018-05-28T01:36:21.505Z,101702.48
2018-05-28T01:38:49.048Z,101779.68
2018-05-28T01:41:16.767Z,101810.16
2018-05-28T01:43:44.296Z,101821.33
2018-05-28T01:46:11.819Z,101872.12
2018-05-28T01:48:39.573Z,101905.64
2018-05-28T01:51:07.132Z,101831.48
2018-05-28T01:53:34.653Z,101846.72
2018-05-28T01:56:02.204Z,101858.91
2018-05-28T01:58:29.730Z,101891.42
2018-05-28T02:00:57.318Z,101930.02
2018-05-28T02:03:24.855Z,101947.30
2018-05-28T02:05:52.373Z,101952.37
2018-05-28T02:08:19.932Z,102020.44
2018-05-28T02:10:47.511Z,101995.03
2018-05-28T02:13:15.053Z,102004.18
2018-05-28T02:15:42.593Z,101972.69
2018-05-28T02:18:10.154Z,102035.67
2018-05-28T02:20:37.679Z,102142.34
2018-05-28T02:23:05.248Z,102208.38
2018-05-28T02:25:32.775Z,102248.00
2018-05-28T02:28:00.446Z,102185.02
2018-05-28T02:30:28.068Z,102214.47
2018-05-28T02:32:55.607Z,102226.66
2018-05-28T02:35:23.195Z,102157.58
2018-05-28T02:37:50.729Z,102200.25
2018-05-28T02:40:18.281Z,102239.87
2018-05-28T02:42:45.845Z,102272.38
2018-05-28T02:45:13.383Z,102190.09
2018-05-28T02:47:40.951Z,102211.42
2018-05-28T02:50:08.513Z,102220.56
2018-05-28T02:52:36.073Z,102246.98
2018-05-28T02:55:03.619Z,102253.08
2018-05-28T02:57:31.235Z,102212.44
2018-05-28T02:59:58.791Z,102202.28
2018-05-28T03:02:27.300Z,102205.33
2018-05-28T03:04:54.903Z,102112.88
2018-05-28T03:07:22.441Z,102093.58
2018-05-28T03:09:49.984Z,102114.91
2018-05-28T03:12:17.560Z,102039.73
2018-05-28T03:14:45.107Z,101977.77
2018-05-28T03:17:12.843Z,102116.95
2018-05-28T03:19:40.372Z,101922.91
2018-05-28T03:22:07.905Z,101996.05
2018-05-28T03:24:35.668Z,101950.34
2018-05-28T03:27:03.191Z,102028.56
2018-05-28T03:29:30.726Z,102010.27
2018-05-28T03:31:58.434Z,101925.95
2018-05-28T03:34:25.963Z,101959.48
2018-05-28T03:36:53.495Z,101919.86
2018-05-28T03:39:21.060Z,101844.69
2018-05-28T03:41:48.592Z,101851.80
2018-05-28T03:44:16.565Z,101922.91
2018-05-28T03:46:44.111Z,101906.66
2018-05-28T03:49:11.656Z,101883.30
2018-05-28T03:51:39.381Z,101706.55
2018-05-28T03:54:06.907Z,101620.20
2018-05-28T03:56:34.444Z,101651.69
2018-05-28T03:59:02.352Z,101703.50
2018-05-28T04:01:41.771Z,101642.55
2018-05-28T04:04:21.523Z,101616.14
2018-05-28T04:06:49.180Z,101656.77
2018-05-28T04:09:22.657Z,101577.54
2018-05-28T04:11:50.213Z,101479.02
2018-05-28T04:14:17.759Z,101437.37
2018-05-28T04:16:45.386Z,101375.41
2018-05-28T04:19:13.305Z,101229.16
2018-05-28T04:21:40.844Z,101267.75
2018-05-28T04:24:08.407Z,101086.97
2018-05-28T04:26:35.973Z,100934.63
2018-05-28T04:29:04.011Z,100707.15
2018-05-28T04:31:31.549Z,100955.95
2018-05-28T04:33:59.092Z,100863.54
2018-05-28T04:36:26.650Z,100924.47
2018-05-28T04:38:54.202Z,100709.18
2018-05-28T04:41:21.764Z,100576.16
2018-05-28T04:43:49.353Z,100320.27
2018-05-28T04:46:16.974Z,100470.55
2018-05-28T04:48:44.516Z,100703.09
2018-05-28T04:51:12.045Z,100891.97
2018-05-28T04:53:39.739Z,100663.48
2018-05-28T04:56:07.267Z,100727.45
2018-05-28T04:58:34.794Z,100759.95
2018-05-28T05:01:02.371Z,100954.94
2018-05-28T05:03:29.899Z,100652.31
2018-05-28T05:05:57.468Z,100717.30
2018-05-28T05:08:24.999Z,100685.82
2018-05-28T05:10:53.440Z,100869.62
2018-05-28T05:13:20.988Z,100511.16
2018-05-28T05:15:48.525Z,99843.06
2018-05-28T05:18:16.295Z,99793.32
2018-05-28T05:20:43.835Z,99273.56
2018-05-28T05:23:11.362Z,98448.40
2018-05-28T05:25:38.921Z,98127.73
2018-05-28T05:28:06.465Z,97707.64
2018-05-28T05:30:34.437Z,97563.58
2018-05-28T05:33:01.996Z,96833.16
2018-05-28T05:35:29.532Z,95889.92
2018-05-28T05:37:57.384Z,96943.72
2018-05-28T05:40:24.912Z,97752.29
2018-05-28T05:42:52.445Z,97205.44
2018-05-28T05:45:20.002Z,96860.54
2018-05-28T05:47:47.558Z,97039.08
2018-05-28T05:50:15.129Z,97325.16
2018-05-28T05:52:42.783Z,97314.00
2018-05-28T05:55:10.314Z,96721.58
2018-05-28T05:57:37.831Z,97463.13
2018-05-28T06:00:05.384Z,96742.88
2018-05-28T06:02:32.906Z,96237.77
2018-05-28T06:05:00.483Z,96349.33
2018-05-28T06:07:28.044Z,96875.75
2018-05-28T06:09:55.584Z,97291.67
2018-05-28T06:12:23.146Z,97644.74
2018-05-28T06:14:50.712Z,98149.03
2018-05-28T06:17:18.299Z,98144.98
2018-05-28T06:19:45.965Z,96582.61
2018-05-28T06:22:13.513Z,97698.52
2018-05-28T06:24:41.043Z,98466.67
2018-05-28T06:27:08.618Z,97587.92
2018-05-28T06:29:36.156Z,97303.84
2018-05-28T06:32:03.693Z,96888.94
2018-05-28T06:34:31.254Z,97433.71
2018-05-28T06:36:58.786Z,98319.52
2018-05-28T06:39:26.373Z,98621.94
2018-05-28T06:41:53.908Z,98366.20
2018-05-28T06:44:21.446Z,99105.06
2018-05-28T06:46:49.017Z,97841.58
2018-05-28T06:49:16.576Z,97973.48
2018-05-28T06:51:44.128Z,97633.58
2018-05-28T06:54:12.041Z,97767.51
2018-05-28T06:56:39.576Z,98363.16
2018-05-28T06:59:07.103Z,97486.47
2018-05-28T07:01:34.672Z,97497.62
2018-05-28T07:04:02.203Z,97495.59
2018-05-28T07:06:30.144Z,97349.50
2018-05-28T07:08:57.695Z,98204.84
2018-05-28T07:11:25.326Z,97876.08
2018-05-28T07:13:52.902Z,98047.56
2018-05-28T07:16:20.442Z,98412.88
2018-05-28T07:18:47.975Z,98672.69
2018-05-28T07:21:15.531Z,99001.53
2018-05-28T07:23:43.128Z,99062.43
2018-05-28T07:26:10.840Z,98935.55
2018-05-28T07:28:38.375Z,98856.39
2018-05-28T07:31:05.908Z,98942.66
2018-05-28T07:33:33.471Z,98779.25
2018-05-28T07:36:01.022Z,99053.30
2018-05-28T07:38:28.611Z,98676.75
2018-05-28T07:40:56.139Z,98906.13
2018-05-28T07:43:23.663Z,99106.08
2018-05-28T07:45:51.303Z,98903.08
2018-05-28T07:48:18.844Z,98903.08
2018-05-28T07:50:46.931Z,98967.02
2018-05-28T07:53:14.459Z,99002.55
2018-05-28T07:55:42.045Z,98934.54
2018-05-28T07:58:09.584Z,98751.84
2018-05-28T08:00:37.118Z,98651.37
2018-05-28T08:03:04.839Z,98620.92
2018-05-28T08:05:32.387Z,98604.69
2018-05-28T08:07:59.968Z,98460.58
2018-05-28T08:10:27.506Z,98475.80
2018-05-28T08:12:55.066Z,98299.22
2018-05-28T08:15:22.593Z,98165.27
2018-05-28T08:17:50.259Z,98162.23
2018-05-28T08:20:17.784Z,98113.52
2018-05-28T08:22:45.392Z,98044.52
2018-05-28T08:25:12.946Z,98197.74
2018-05-28T08:27:40.479Z,98237.32
2018-05-28T08:30:08.012Z,98015.09
2018-05-28T08:32:35.563Z,97657.93
2018-05-28T08:35:03.285Z,98149.03
2018-05-28T08:37:30.811Z,97976.53
2018-05-28T08:39:58.344Z,97982.63
2018-05-28T08:42:26.333Z,97925.80
2018-05-28T08:44:53.890Z,97805.05
2018-05-28T08:47:21.422Z,97624.45
2018-05-28T08:49:48.975Z,97818.24
2018-05-28T08:52:16.509Z,97382.98
2018-05-28T08:54:44.067Z,97732.00
2018-05-28T08:57:11.618Z,97478.34
2018-05-28T08:59:39.537Z,97510.81
2018-05-28T09:02:07.073Z,97583.86
2018-05-28T09:04:34.594Z,97721.85
2018-05-28T09:07:02.552Z,97678.22
2018-05-28T09:09:30.177Z,97377.91
2018-05-28T09:11:57.719Z,96858.52
2018-05-28T09:14:25.275Z,96859.53
2018-05-28T09:16:53.276Z,96916.33
2018-05-28T09:19:20.809Z,97246.02
2018-05-28T09:21:48.351Z,97314.00
2018-05-28T09:24:15.936Z,97007.63
2018-05-28T09:26:43.476Z,97021.83
2018-05-28T09:29:11.056Z,96881.84
2018-05-28T09:31:38.583Z,96649.55
2018-05-28T09:34:06.115Z,96747.95
2018-05-28T09:36:33.807Z,96573.48
2018-05-28T09:39:01.353Z,96968.06
2018-05-28T09:41:28.889Z,96539.00
2018-05-28T09:43:56.464Z,96809.82
2018-05-28T09:46:23.996Z,96324.99
2018-05-28T09:48:51.551Z,96439.60
2018-05-28T09:51:19.103Z,96371.64
2018-05-28T09:53:46.670Z,96137.37
2018-05-28T09:56:14.208Z,96281.37
2018-05-28T09:58:41.770Z,96387.87
2018-05-28T10:01:09.308Z,96419.31
2018-05-28T10:03:36.859Z,96361.50
2018-05-28T10:06:04.391Z,96482.20
2018-05-28T10:08:32.311Z,96298.63
2018-05-28T10:10:59.836Z,96550.16
2018-05-28T10:13:27.370Z,96488.28
2018-05-28T10:15:54.928Z,96178.95
2018-05-28T10:18:22.484Z,96082.60
2018-05-28T10:20:50.039Z,96263.12
2018-05-28T10:23:17.567Z,96259.06
2018-05-28T10:25:45.328Z,96080.58
2018-05-28T10:28:12.860Z,96369.62
2018-05-28T10:30:40.399Z,96270.22
2018-05-28T10:33:07.983Z,96215.45
2018-05-28T10:35:35.511Z,96088.69
2018-05-28T10:38:03.063Z,95819.95
2018-05-28T10:40:30.632Z,95444.77
2018-05-28T10:42:58.224Z,95401.16
2018-05-28T10:45:25.757Z,95623.22
2018-05-28T10:47:53.290Z,95861.52
2018-05-28T10:50:20.866Z,95728.69
2018-05-28T10:52:48.820Z,95706.38
2018-05-28T10:55:16.346Z,95560.36
2018-05-28T10:57:43.872Z,95396.09
2018-05-28T11:00:11.424Z,95595.84
2018-05-28T11:02:38.959Z,95394.06
2018-05-28T11:05:06.515Z,95239.95
2018-05-28T11:07:34.072Z,95473.16
2018-05-28T11:10:01.742Z,95234.88
2018-05-28T11:12:29.301Z,95396.09
2018-05-28T11:14:56.827Z,95190.27
2018-05-28T11:17:24.368Z,94705.66
2018-05-28T11:19:51.930Z,94868.88
2018-05-28T11:22:19.516Z,95089.89
2018-05-28T11:24:47.051Z,95036.16
2018-05-28T11:27:14.584Z,94750.27
2018-05-28T11:29:42.151Z,94445.14
2018-05-28T11:32:09.691Z,94627.61
2018-05-28T11:34:37.382Z,94491.77
2018-05-28T11:37:04.915Z,94604.29
2018-05-28T11:39:32.448Z,94276.87
2018-05-28T11:42:00.287Z,94388.38
2018-05-28T11:44:27.830Z,94094.43
2018-05-28T11:46:55.372Z,94126.86
2018-05-28T11:49:22.928Z,94197.81
2018-05-28T11:51:50.511Z,94064.02
2018-05-28T11:54:18.051Z,94383.31
2018-05-28T11:56:45.591Z,94396.48
2018-05-28T11:59:13.538Z,94200.86
2018-05-28T12:01:41.068Z,94104.56
2018-05-28T12:04:08.591Z,94036.66
2018-05-28T12:06:36.156Z,93874.49
2018-05-28T12:09:03.705Z,93925.17
2018-05-28T12:11:31.302Z,94223.16
2018-05-28T12:13:58.855Z,94272.82
2018-05-28T12:16:26.379Z,94202.88
2018-05-28T12:18:54.320Z,93802.53
2018-05-28T12:21:21.846Z,93799.50
2018-05-28T12:23:49.385Z,94210.99
2018-05-28T12:26:16.966Z,93725.51
2018-05-28T12:28:44.532Z,93476.21
2018-05-28T12:31:12.101Z,93537.02
2018-05-28T12:33:39.655Z,93514.72
2018-05-28T12:36:07.203Z,93628.22
2018-05-28T12:38:34.742Z,93720.44
2018-05-28T12:41:02.298Z,94065.03
2018-05-28T12:43:29.833Z,93970.78
2018-05-28T12:45:57.384Z,94012.33
2018-05-28T12:48:24.916Z,93946.45
2018-05-28T12:50:52.878Z,93866.38
2018-05-28T12:53:20.412Z,93762.00
2018-05-28T12:55:47.941Z,93734.63
2018-05-28T12:58:15.703Z,93888.68
2018-05-28T13:00:43.232Z,93483.30
2018-05-28T13:03:10.764Z,93518.77
2018-05-28T13:05:38.431Z,93615.05
2018-05-28T13:08:05.963Z,93659.64
2018-05-28T13:10:33.490Z,93786.32
2018-05-28T13:13:01.091Z,93890.70
2018-05-28T13:15:28.615Z,93822.80
2018-05-28T13:17:56.172Z,93902.87
2018-05-28T13:20:23.705Z,93904.90
2018-05-28T13:22:51.633Z,93949.49
2018-05-28T13:25:19.168Z,94002.20
2018-05-28T13:27:46.694Z,94131.93
2018-05-28T13:30:14.250Z,93834.97
2018-05-28T13:32:41.783Z,93755.91
2018-05-28T13:35:09.456Z,93880.57
2018-05-28T13:37:36.986Z,94122.81
2018-05-28T13:40:04.534Z,93916.05
2018-05-28T13:42:32.099Z,93914.02
2018-05-28T13:44:59.803Z,93778.21
2018-05-28T13:47:27.336Z,93645.45
2018-05-28T13:49:54.872Z,93701.19
2018-05-28T13:52:22.435Z,93698.14
2018-05-28T13:54:49.967Z,93726.52
2018-05-28T13:57:17.962Z,93545.13
2018-05-28T13:59:45.548Z,93446.82
2018-05-28T14:02:13.136Z,93463.03
2018-05-28T14:04:40.978Z,93439.73
2018-05-28T14:07:08.514Z,93447.84
2018-05-28T14:09:36.060Z,93344.47
2018-05-28T14:12:03.651Z,93374.88
2018-05-28T14:14:31.208Z,93352.58
2018-05-28T14:19:26.218Z,93044.53
2018-05-28T14:21:53.836Z,93361.70
2018-05-28T14:24:21.392Z,93445.80
2018-05-28T14:26:48.953Z,93421.48
2018-05-28T14:29:16.512Z,93540.05
2018-05-28T14:31:44.351Z,93633.29
2018-05-28T14:34:11.892Z,93536.00
2018-05-28T14:36:39.470Z,93514.72
2018-05-28T14:39:07.031Z,93544.11
2018-05-28T14:41:34.559Z,93572.48
2018-05-28T14:44:02.424Z,93567.41
2018-05-28T14:46:29.971Z,93483.30
2018-05-28T14:48:57.530Z,93562.34
2018-05-28T14:51:25.095Z,93510.66
2018-05-28T14:53:52.640Z,93362.71
2018-05-28T14:56:20.205Z,93532.96
2018-05-28T14:58:47.768Z,93441.75
2018-05-28T15:01:15.296Z,93379.94
2018-05-28T15:03:42.975Z,93615.05
2018-05-28T15:06:10.504Z,93702.20
2018-05-28T15:08:38.040Z,93738.69
2018-05-28T15:11:05.600Z,93583.63
2018-05-28T15:13:33.126Z,93687.00
2018-05-28T15:16:00.678Z,93645.45
2018-05-28T15:18:28.223Z,93561.34
2018-05-28T15:20:55.751Z,93626.19
2018-05-28T15:23:23.694Z,93643.42
2018-05-28T15:25:51.225Z,93660.66
2018-05-28T15:28:18.757Z,93634.30
2018-05-28T15:30:46.325Z,93708.28
2018-05-28T15:33:13.867Z,93582.61
2018-05-28T15:35:41.446Z,93423.52
2018-05-28T15:38:08.971Z,93519.78
2018-05-28T15:40:36.497Z,93473.17
2018-05-28T15:43:04.051Z,93523.84
2018-05-28T15:45:31.603Z,93475.20
2018-05-28T15:47:59.135Z,93563.36
2018-05-28T15:50:26.694Z,93522.83
2018-05-28T15:52:54.231Z,93710.31
2018-05-28T15:55:21.786Z,93766.05
2018-05-28T15:57:49.479Z,93681.93
2018-05-28T16:00:17.013Z,93746.80
2018-05-28T16:02:44.592Z,93696.13
2018-05-28T16:05:12.311Z,93548.16
2018-05-28T16:07:39.855Z,93587.69
2018-05-28T16:10:07.409Z,93666.73
2018-05-28T16:12:34.963Z,93700.17
2018-05-28T16:15:02.491Z,93828.89
2018-05-28T16:17:30.199Z,93869.42
2018-05-28T16:19:57.728Z,93836.99
2018-05-28T16:22:25.256Z,93884.62
2018-05-28T16:24:52.813Z,93897.80
2018-05-28T16:27:20.905Z,93851.18
2018-05-28T16:29:48.437Z,93796.45
2018-05-28T16:32:16.020Z,93852.20
2018-05-28T16:34:44.011Z,93887.67
2018-05-28T16:37:11.555Z,93925.17
2018-05-28T16:39:39.088Z,93963.68
2018-05-28T16:42:06.641Z,93963.68
2018-05-28T16:44:34.174Z,93899.83
2018-05-28T16:47:01.742Z,93989.02
2018-05-28T16:49:29.269Z,93937.33
2018-05-28T16:51:57.220Z,93888.68
2018-05-28T16:54:24.831Z,93895.77
2018-05-28T16:56:52.378Z,93865.37
2018-05-28T16:59:20.045Z,93831.92
2018-05-28T17:01:47.600Z,93999.16
2018-05-28T17:04:15.131Z,93928.20
2018-05-28T17:06:42.722Z,94013.34
2018-05-28T17:09:10.281Z,94086.32
2018-05-28T17:11:37.824Z,94051.86
2018-05-28T17:14:05.390Z,94144.09
2018-05-28T17:16:32.946Z,94153.22
2018-05-28T17:19:00.475Z,94086.32
2018-05-28T17:21:28.052Z,94027.53
2018-05-28T17:23:55.576Z,94072.13
2018-05-28T17:26:23.239Z,94118.75
2018-05-28T17:28:50.767Z,94103.55
2018-05-28T17:31:18.317Z,94198.83
2018-05-28T17:33:45.888Z,94169.44
2018-05-28T17:36:13.493Z,94282.95
2018-05-28T17:38:41.139Z,94149.16
2018-05-28T17:41:08.695Z,94223.16
2018-05-28T17:43:36.226Z,94231.27
2018-05-28T17:46:04.123Z,94255.59
2018-05-28T17:48:31.703Z,94248.50
2018-05-28T17:50:59.247Z,94143.08
2018-05-28T17:53:26.815Z,93891.72
2018-05-28T17:55:54.348Z,93836.99
2018-05-28T17:58:21.901Z,93679.91
2018-05-28T18:00:49.625Z,93517.76
2018-05-28T18:03:17.204Z,93499.52
2018-05-28T18:05:44.739Z,93563.36
2018-05-28T18:08:12.263Z,93294.81
2018-05-28T18:10:39.863Z,93335.35
2018-05-28T18:13:07.390Z,93362.71
2018-05-28T18:15:34.944Z,93663.69
2018-05-28T18:18:02.520Z,93755.91
2018-05-28T18:20:30.201Z,93838.00
2018-05-28T18:22:57.734Z,94067.06
2018-05-28T18:25:25.262Z,94419.80
2018-05-28T18:27:52.828Z,94359.99
2018-05-28T18:30:20.350Z,94414.73
2018-05-28T18:32:48.358Z,94206.94
2018-05-28T18:35:15.891Z,93959.63
2018-05-28T18:37:43.425Z,94277.89
2018-05-28T18:40:11.147Z,94628.63
2018-05-28T18:42:38.682Z,94642.81
2018-05-28T18:45:06.208Z,94745.20
2018-05-28T18:47:33.791Z,94996.62
2018-05-28T18:50:01.341Z,95187.23
2018-05-28T18:52:29.328Z,95161.87
2018-05-28T18:54:57.294Z,95085.84
2018-05-28T18:57:24.824Z,95417.39
2018-05-28T18:59:52.358Z,95380.88
2018-05-28T19:02:19.910Z,95513.71
2018-05-28T19:04:47.465Z,95804.73
2018-05-28T19:07:15.008Z,95890.94
2018-05-28T19:09:43.772Z,95989.30
2018-05-28T19:12:11.315Z,96031.89
2018-05-28T19:14:38.847Z,96075.50
2018-05-28T19:17:06.423Z,96213.43
2018-05-28T19:19:33.964Z,96210.39
2018-05-28T19:22:01.575Z,96477.13
2018-05-28T19:24:29.115Z,96509.58
2018-05-28T19:26:57.039Z,96597.83
2018-05-28T19:29:25.669Z,96701.29
2018-05-28T19:31:53.510Z,96796.63
2018-05-28T19:34:21.085Z,96819.97
2018-05-28T19:36:48.615Z,96931.55
2018-05-28T19:39:16.155Z,97009.66
2018-05-28T19:41:43.702Z,97126.31
2018-05-28T19:44:11.238Z,97162.84
2018-05-28T19:46:38.822Z,97226.75
2018-05-28T19:49:06.347Z,97285.59
2018-05-28T19:51:33.871Z,97284.58
2018-05-28T19:54:01.577Z,97397.19
2018-05-28T19:56:29.111Z,97393.13
2018-05-28T19:58:56.676Z,97428.64
2018-05-28T20:01:24.247Z,97473.27
2018-05-28T20:03:51.775Z,97527.05
2018-05-28T20:06:19.298Z,97563.58
2018-05-28T20:08:47.192Z,97565.60
2018-05-28T20:11:14.721Z,97674.16
2018-05-28T20:13:42.261Z,97655.90
2018-05-28T20:16:09.816Z,97676.19
2018-05-28T20:18:37.373Z,97760.41
2018-05-28T20:21:04.936Z,97757.36
2018-05-28T20:23:32.475Z,97846.66
2018-05-28T20:26:00.134Z,97795.92
2018-05-28T20:28:27.672Z,97791.86
2018-05-28T20:30:55.208Z,97853.75
2018-05-28T20:33:23.092Z,97930.88
2018-05-28T20:35:50.618Z,98033.36
2018-05-28T20:38:18.133Z,97969.43
2018-05-28T20:40:46.023Z,98024.22
2018-05-28T20:43:13.556Z,98035.38
2018-05-28T20:45:41.125Z,98117.58
2018-05-28T20:48:08.685Z,98196.73
2018-05-28T20:50:36.610Z,98155.13
2018-05-28T20:53:04.138Z,98175.42
2018-05-28T20:55:31.662Z,98198.76
2018-05-28T20:57:59.323Z,98134.83
2018-05-28T21:00:26.850Z,98178.47
2018-05-28T21:02:54.376Z,98263.70
2018-05-28T21:05:21.955Z,98247.47
2018-05-28T21:07:49.488Z,98218.03
2018-05-28T21:10:17.031Z,98238.34
2018-05-28T21:12:44.583Z,98226.16
2018-05-28T21:15:12.144Z,98301.25
2018-05-28T21:17:39.734Z,98272.84
2018-05-28T21:20:07.290Z,98388.52
2018-05-28T21:22:34.827Z,98390.55
2018-05-28T21:25:02.600Z,98425.06
2018-05-28T21:27:30.136Z,98454.48
2018-05-28T21:29:57.667Z,98441.30
2018-05-28T21:32:25.220Z,98469.71
2018-05-28T21:34:52.769Z,98474.78
2018-05-28T21:37:20.295Z,98483.92
2018-05-28T21:39:48.244Z,98502.19
2018-05-28T21:42:15.778Z,98519.44
2018-05-28T21:44:43.312Z,98595.55
2018-05-28T21:47:10.976Z,98587.44
2018-05-28T21:49:38.506Z,98611.79
2018-05-28T21:52:06.041Z,98642.23
2018-05-28T21:54:33.774Z,98695.02
2018-05-28T21:57:01.313Z,98690.95
2018-05-28T21:59:28.851Z,98704.15
2018-05-28T22:01:56.412Z,98810.72
2018-05-28T22:04:23.934Z,98784.33
2018-05-28T22:06:52.362Z,98778.23
2018-05-28T22:09:19.890Z,98831.02
2018-05-28T22:11:47.415Z,98849.28
2018-05-28T22:14:15.010Z,98833.05
2018-05-28T22:16:42.541Z,98914.24
2018-05-28T22:19:10.067Z,98865.52
2018-05-28T22:21:37.620Z,98936.57
2018-05-28T22:24:05.176Z,98904.09
2018-05-28T22:26:32.707Z,98962.96
2018-05-28T22:29:00.276Z,98950.78
2018-05-28T22:31:27.823Z,98980.22
2018-05-28T22:33:55.384Z,99036.04
2018-05-28T22:36:23.342Z,99025.89
2018-05-28T22:38:50.870Z,99060.40
2018-05-28T22:41:18.527Z,99098.97
2018-05-28T22:43:46.263Z,99086.79
2018-05-28T22:46:13.799Z,99137.55
2018-05-28T22:48:41.343Z,99155.81
2018-05-28T22:51:09.004Z,99199.46
2018-05-28T22:53:36.526Z,99220.77
2018-05-28T22:56:04.443Z,99262.39
2018-05-28T22:58:31.972Z,99296.91
2018-05-28T23:00:59.503Z,99264.42
2018-05-28T23:03:27.052Z,99288.78
2018-05-28T23:05:54.618Z,99345.63
2018-05-28T23:08:22.178Z,99326.34
2018-05-28T23:10:49.715Z,99341.57
2018-05-28T23:13:17.286Z,99382.17
2018-05-28T23:15:44.816Z,99477.59
2018-05-28T23:18:12.352Z,99403.49
2018-05-28T23:20:39.903Z,99421.77
2018-05-28T23:23:07.435Z,99480.64
2018-05-28T23:25:34.998Z,99500.95
2018-05-28T23:28:02.535Z,99534.45
2018-05-28T23:30:30.372Z,99512.11
2018-05-28T23:32:57.913Z,99522.27
2018-05-28T23:35:25.450Z,99600.43
2018-05-28T23:37:53.150Z,99584.19
2018-05-28T23:40:20.677Z,99587.23
2018-05-28T23:42:48.752Z,99630.89
2018-05-28T23:45:16.287Z,99604.49
2018-05-28T23:47:43.823Z,99604.49
2018-05-28T23:50:11.463Z,99607.54
2018-05-28T23:52:38.988Z,99639.01
2018-05-28T23:55:06.527Z,99625.81
2018-05-28T23:57:34.081Z,99629.88
